Le Sueur, Minnesota
Current Conditions -  °F | °C
As of 11:35 AM on Friday 31 Oct 2014 (Local Time) from KMKT Reporting Station
Clear Clear  
Wind Chill: 25°   Ceiling: Unl
Heat Index: 34°   Visibility: 10mi
Dew Point: 16°   Wind: 13mph
Humidity: 48%   Direction: 10°N
Pressure: 30.56"   Gusts: 17mph
Location:  44.46°N, 93.92°W
Report Text: KMKT 311635Z AUTO 01011G15KT 10SM CLR 01/M09 A3056 RMK AO1
Loading
Personal Weather Stations






























Interactive Weather Map
Tropical Storm Tracking
New forecast layout! Learn more

10-Day Weather Forecast

Advertisements
Track Severe Weather on mobile